createdAt,value
2019-05-29T00:02:43.160Z,61.67
2019-05-29T00:07:54.950Z,62.00
2019-05-29T00:13:01.581Z,62.16
2019-05-29T00:18:08.329Z,62.28
2019-05-29T00:23:18.839Z,62.04
2019-05-29T00:28:26.571Z,62.80
2019-05-29T00:33:35.737Z,62.36
2019-05-29T00:38:43.008Z,62.87
2019-05-29T00:43:48.784Z,62.91
2019-05-29T00:48:56.747Z,63.13
2019-05-29T00:54:05.487Z,63.54
2019-05-29T00:59:13.558Z,63.11
2019-05-29T01:04:20.763Z,62.94
2019-05-29T01:09:30.776Z,62.92
2019-05-29T01:14:49.616Z,63.18
2019-05-29T01:19:52.100Z,62.76
2019-05-29T01:25:01.916Z,62.86
2019-05-29T01:30:11.493Z,63.06
2019-05-29T01:35:19.927Z,63.06
2019-05-29T01:40:32.752Z,63.23
2019-05-29T01:45:44.760Z,63.55
2019-05-29T01:50:52.568Z,63.81
2019-05-29T01:56:00.927Z,64.42
2019-05-29T02:01:10.631Z,64.06
2019-05-29T02:06:17.850Z,64.06
2019-05-29T02:11:25.475Z,64.27
2019-05-29T02:16:33.622Z,64.13
2019-05-29T02:21:41.383Z,64.42
2019-05-29T02:26:49.970Z,64.76
2019-05-29T02:31:56.197Z,64.66
2019-05-29T02:37:05.887Z,64.36
2019-05-29T02:42:12.619Z,64.23
2019-05-29T02:47:23.656Z,64.47
2019-05-29T02:52:36.252Z,64.21
2019-05-29T02:57:55.098Z,64.21
2019-05-29T03:03:01.415Z,63.89
2019-05-29T03:08:10.205Z,63.50
2019-05-29T03:13:16.017Z,63.97
2019-05-29T03:18:27.917Z,64.79
2019-05-29T03:23:36.712Z,65.14
2019-05-29T03:28:48.625Z,65.17
2019-05-29T03:33:59.484Z,65.27
2019-05-29T03:39:09.115Z,64.89
2019-05-29T03:44:16.308Z,64.51
2019-05-29T03:49:26.818Z,64.34
2019-05-29T03:54:35.342Z,64.23
2019-05-29T03:59:43.618Z,64.08
2019-05-29T04:04:49.524Z,64.27
2019-05-29T04:09:55.799Z,63.73
2019-05-29T04:15:04.727Z,63.34
2019-05-29T04:20:15.145Z,63.31
2019-05-29T04:25:24.364Z,63.00
2019-05-29T04:30:34.186Z,62.94
2019-05-29T04:35:43.774Z,62.93
2019-05-29T04:40:50.919Z,63.38
2019-05-29T04:45:57.144Z,63.55
2019-05-29T04:51:07.773Z,63.24
2019-05-29T04:56:16.441Z,62.67
2019-05-29T05:01:22.301Z,63.20
2019-05-29T05:06:31.519Z,63.55
2019-05-29T05:11:40.471Z,63.74
2019-05-29T05:16:51.742Z,63.17
2019-05-29T05:22:00.733Z,61.95
2019-05-29T05:27:08.574Z,59.93
2019-05-29T05:32:16.137Z,59.78
2019-05-29T05:37:22.942Z,59.36
2019-05-29T05:42:31.142Z,58.34
2019-05-29T05:47:50.098Z,57.26
2019-05-29T05:52:46.527Z,57.34
2019-05-29T05:57:52.525Z,56.53
2019-05-29T06:03:01.283Z,56.62
2019-05-29T06:08:07.934Z,56.42
2019-05-29T06:13:15.680Z,55.86
2019-05-29T06:18:26.212Z,54.96
2019-05-29T06:23:36.999Z,54.54
2019-05-29T06:28:45.539Z,53.55
2019-05-29T06:33:56.098Z,53.48
2019-05-29T06:39:07.074Z,53.43
2019-05-29T06:44:20.187Z,51.44
2019-05-29T06:49:31.449Z,50.97
2019-05-29T06:54:44.155Z,50.99
2019-05-29T06:59:52.885Z,50.35
2019-05-29T07:05:02.461Z,50.03
2019-05-29T07:10:14.117Z,50.18
2019-05-29T07:15:22.272Z,50.26
2019-05-29T07:20:28.157Z,49.64
2019-05-29T07:25:38.724Z,49.88
2019-05-29T07:30:59.438Z,49.13
2019-05-29T07:36:01.373Z,48.26
2019-05-29T07:41:08.795Z,48.31
2019-05-29T07:46:17.180Z,48.71
2019-05-29T07:51:26.790Z,48.60
2019-05-29T07:56:36.688Z,47.95
2019-05-29T08:01:47.871Z,47.69
2019-05-29T08:06:57.408Z,47.37
2019-05-29T08:12:05.605Z,46.13
2019-05-29T08:17:11.089Z,46.72
2019-05-29T08:22:33.267Z,44.69
2019-05-29T08:27:31.688Z,46.51
2019-05-29T08:32:38.303Z,46.91
2019-05-29T08:37:44.961Z,45.58
2019-05-29T08:42:57.990Z,43.44
2019-05-29T08:48:07.730Z,44.85
2019-05-29T08:53:17.409Z,44.13
2019-05-29T08:58:25.050Z,46.18
2019-05-29T09:03:33.896Z,43.98
2019-05-29T09:08:43.729Z,45.05
2019-05-29T09:13:54.979Z,45.55
2019-05-29T09:19:04.667Z,44.54
2019-05-29T09:24:16.349Z,44.36
2019-05-29T09:29:31.095Z,43.21
2019-05-29T09:34:39.990Z,43.15
2019-05-29T09:39:49.959Z,43.86
2019-05-29T09:44:59.017Z,42.23
2019-05-29T09:50:09.314Z,43.38
2019-05-29T09:55:18.232Z,42.21
2019-05-29T10:00:27.108Z,42.07
2019-05-29T10:05:43.756Z,41.68
2019-05-29T10:11:03.854Z,42.08
2019-05-29T10:16:02.894Z,40.21
2019-05-29T10:21:12.819Z,41.05
2019-05-29T10:26:22.464Z,42.19
2019-05-29T10:31:32.901Z,41.79
2019-05-29T10:36:42.369Z,41.45
2019-05-29T10:41:53.024Z,40.60
2019-05-29T10:47:02.730Z,40.89
2019-05-29T10:52:16.674Z,41.21
2019-05-29T10:57:21.776Z,40.89
2019-05-29T11:02:27.746Z,39.84
2019-05-29T11:07:35.425Z,40.71
2019-05-29T11:12:44.129Z,39.37
2019-05-29T11:17:53.232Z,39.84
2019-05-29T11:23:10.634Z,39.63
2019-05-29T11:28:18.511Z,39.41
2019-05-29T11:33:28.272Z,39.11
2019-05-29T11:39:15.116Z,38.18
2019-05-29T11:44:21.029Z,38.05
2019-05-29T11:49:30.292Z,38.08
2019-05-29T11:54:37.506Z,38.25
2019-05-29T11:59:47.457Z,37.00
2019-05-29T12:04:55.141Z,38.65
2019-05-29T12:10:05.195Z,36.46
2019-05-29T12:15:23.462Z,36.96
2019-05-29T12:20:33.888Z,35.17
2019-05-29T12:25:41.416Z,35.72
2019-05-29T12:30:49.679Z,36.24
2019-05-29T12:35:57.386Z,36.25
2019-05-29T12:41:05.386Z,35.62
2019-05-29T12:46:13.739Z,34.24
2019-05-29T12:51:23.044Z,35.34
2019-05-29T12:56:31.588Z,35.68
2019-05-29T13:01:40.766Z,35.84
2019-05-29T13:06:49.718Z,34.59
2019-05-29T13:12:04.800Z,34.95
2019-05-29T13:17:13.394Z,34.52
2019-05-29T13:22:20.006Z,34.28
2019-05-29T13:27:29.297Z,33.82
2019-05-29T13:32:36.866Z,33.40
2019-05-29T13:37:48.470Z,34.15
2019-05-29T13:43:04.417Z,33.78
2019-05-29T13:48:09.226Z,33.86
2019-05-29T13:53:16.931Z,31.49
2019-05-29T13:58:28.246Z,27.95
2019-05-29T14:03:34.996Z,25.82
2019-05-29T14:08:42.080Z,26.16
2019-05-29T14:13:49.606Z,28.85
2019-05-29T14:19:00.714Z,28.07
2019-05-29T14:24:26.731Z,27.56
2019-05-29T14:29:24.735Z,27.46
2019-05-29T14:34:32.520Z,25.12
2019-05-29T14:39:42.406Z,27.06
2019-05-29T14:44:51.532Z,30.24
2019-05-29T14:50:02.528Z,31.05
2019-05-29T14:55:18.343Z,30.73
2019-05-29T15:00:29.162Z,31.29
2019-05-29T15:05:34.533Z,31.72
2019-05-29T15:10:45.468Z,32.24
2019-05-29T15:15:54.131Z,32.28
2019-05-29T15:21:03.127Z,32.42
2019-05-29T15:26:11.702Z,32.46
2019-05-29T15:31:18.290Z,33.19
2019-05-29T15:36:24.228Z,34.01
2019-05-29T15:41:36.634Z,34.35
2019-05-29T15:46:44.388Z,33.72
2019-05-29T15:51:51.736Z,34.14
2019-05-29T15:57:02.275Z,33.49
2019-05-29T16:02:09.465Z,33.16
2019-05-29T16:07:19.432Z,33.62
2019-05-29T16:12:32.348Z,33.75
2019-05-29T16:17:43.284Z,34.42
2019-05-29T16:22:51.787Z,35.20
2019-05-29T16:28:00.917Z,34.13
2019-05-29T16:33:10.830Z,34.26
2019-05-29T16:38:19.757Z,34.49
2019-05-29T16:43:25.457Z,34.65
2019-05-29T16:48:30.704Z,33.52
2019-05-29T16:53:41.117Z,33.73
2019-05-29T16:58:54.051Z,33.79
2019-05-29T17:04:04.646Z,34.49
2019-05-29T17:09:12.483Z,33.47
2019-05-29T17:14:22.969Z,33.88
2019-05-29T17:19:30.831Z,34.55
2019-05-29T17:24:37.411Z,34.23
2019-05-29T17:29:51.141Z,34.73
2019-05-29T17:34:56.451Z,34.93
2019-05-29T17:40:08.997Z,34.23
2019-05-29T17:45:21.542Z,34.51
2019-05-29T17:50:29.156Z,34.28
2019-05-29T17:55:40.247Z,34.10
2019-05-29T18:00:46.335Z,35.06
2019-05-29T18:05:53.857Z,35.65
2019-05-29T18:11:16.968Z,35.80
2019-05-29T18:16:33.331Z,36.36
2019-05-29T18:21:39.565Z,36.56
2019-05-29T18:26:47.537Z,34.95
2019-05-29T18:31:56.418Z,35.65
2019-05-29T18:37:02.344Z,35.47
2019-05-29T18:42:10.084Z,36.55
2019-05-29T18:47:23.113Z,36.87
2019-05-29T18:52:32.720Z,37.61
2019-05-29T18:57:43.724Z,37.89
2019-05-29T19:02:51.690Z,38.24
2019-05-29T19:08:01.276Z,38.80
2019-05-29T19:13:09.950Z,39.07
2019-05-29T19:18:22.018Z,39.66
2019-05-29T19:23:29.103Z,39.58
2019-05-29T19:28:37.485Z,39.17
2019-05-29T19:33:43.527Z,40.33
2019-05-29T19:38:52.447Z,40.79
2019-05-29T19:44:04.871Z,40.87
2019-05-29T19:49:14.761Z,41.24
2019-05-29T19:54:27.433Z,42.13
2019-05-29T19:59:36.310Z,42.15
2019-05-29T20:04:46.088Z,42.30
2019-05-29T20:10:00.300Z,42.28
2019-05-29T20:15:10.487Z,42.02
2019-05-29T20:20:20.725Z,42.06
2019-05-29T20:25:28.839Z,41.80
2019-05-29T20:30:38.863Z,41.96
2019-05-29T20:35:49.629Z,41.69
2019-05-29T20:40:59.451Z,41.92
2019-05-29T20:46:11.011Z,41.74
2019-05-29T20:51:18.126Z,42.04
2019-05-29T20:56:24.150Z,41.03
2019-05-29T21:01:42.977Z,42.18
2019-05-29T21:06:45.568Z,42.30
2019-05-29T21:11:52.912Z,42.63
2019-05-29T21:17:05.873Z,43.01
2019-05-29T21:22:14.153Z,42.77
2019-05-29T21:27:29.508Z,43.39
2019-05-29T21:32:40.186Z,43.53
2019-05-29T21:37:49.368Z,43.72
2019-05-29T21:42:59.498Z,43.79
2019-05-29T21:48:10.531Z,44.02
2019-05-29T21:53:19.816Z,44.20
2019-05-29T21:58:27.328Z,44.56
2019-05-29T22:03:33.753Z,44.49
2019-05-29T22:08:47.999Z,44.88
2019-05-29T22:13:58.533Z,44.76
2019-05-29T22:19:05.889Z,44.76
2019-05-29T22:24:11.686Z,45.11
2019-05-29T22:29:22.464Z,45.52
2019-05-29T22:34:28.353Z,45.29
2019-05-29T22:39:38.685Z,45.28
2019-05-29T22:44:51.525Z,45.53
2019-05-29T22:49:58.441Z,45.49
2019-05-29T22:55:06.077Z,45.65
2019-05-29T23:00:18.776Z,45.66
2019-05-29T23:05:24.391Z,45.88
2019-05-29T23:10:29.627Z,46.11
2019-05-29T23:15:39.071Z,46.33
2019-05-29T23:20:45.621Z,45.53
2019-05-29T23:25:56.505Z,46.17
2019-05-29T23:31:06.271Z,46.63
2019-05-29T23:36:11.756Z,46.07
2019-05-29T23:41:20.057Z,46.01
2019-05-29T23:46:29.632Z,45.88
2019-05-29T23:51:38.229Z,46.08
2019-05-29T23:56:49.025Z,46.39
